»·PEaware :: SWA330 KPHX-KSAN

SWA330 :: KPHX-KSAN

FLIGHT INFORMATION

Flight Status: Arrived
Operator:
Southwest Airlines
More flights by this operator :: More flights under this callsign
Pilot: Cole F. (14495)
Aircraft: BOEING 737-300
(B733)
More flights by this aircraft type
Origin: KPHX Phoenix Sky Harbor Intl
United States
Destination: KSAN San Diego Intl-Lindbergh
United States
More flights between these airports :: More routes between these airports
Route: JUDTH6 MOHAK J2 HOGGZ LUCKI1
File this flight plan on PilotEdge
Remarks:
Altitude:
(Current/Filed)
36,000ft
Speed:
(Current/Filed)
450kts
Departed: 26-Sep-17 08:12 AM
Arrived: 26-Sep-17 09:03 AM
Distance/Time
Traveled:
264nm/0:51
Distance/Time
To Go:
Arrived

Flight Plot

Page will automatically refresh every two minutes.

Flight plan parsing failed; only flown route is shown


Map Options




Map Legend


Flown Route
Filed Route
Departure Airport
Arrival Airport
Navaid (VOR, NDB)
Fix

Horizontal Profiles

Position Reports

Time Latitude Longitude Heading Altitude Ground
Speed
26-Sep-17 07:50 33.434067 -111.996235 285 1124ft 0kts
26-Sep-17 07:51 33.434067 -111.996235 285 1124ft 0kts
26-Sep-17 07:52 33.434067 -111.996235 285 1124ft 0kts
26-Sep-17 07:53 33.434067 -111.996235 285 1124ft 0kts
26-Sep-17 07:54 33.434067 -111.996235 285 1124ft 0kts
26-Sep-17 07:55 33.434067 -111.996235 285 1124ft 0kts
26-Sep-17 07:56 33.434067 -111.996235 285 1124ft 0kts
26-Sep-17 07:57 33.434067 -111.996235 285 1124ft 0kts
26-Sep-17 07:58 33.434067 -111.996235 285 1124ft 0kts
26-Sep-17 07:59 33.434067 -111.996235 285 1124ft 0kts
26-Sep-17 08:00 33.434067 -111.996235 285 1124ft 0kts
26-Sep-17 08:01 33.434067 -111.996235 285 1124ft 0kts
26-Sep-17 08:02 33.434067 -111.996235 285 1124ft 0kts
26-Sep-17 08:03 33.434067 -111.996235 285 1124ft 0kts
26-Sep-17 08:04 33.434067 -111.996235 285 1124ft 0kts
26-Sep-17 08:05 33.434049 -111.996150 272 1124ft 1kts
26-Sep-17 08:06 33.434394 -111.995747 175 1125ft 0kts
26-Sep-17 08:07 33.434395 -111.995747 175 1125ft 0kts
26-Sep-17 08:08 33.434307 -111.995741 178 1124ft 3kts
26-Sep-17 08:09 33.433455 -111.995741 180 1123ft 0kts
26-Sep-17 08:10 33.432134 -111.996069 266 1122ft 13kts
26-Sep-17 08:11 33.432144 -112.001898 270 1123ft 20kts
26-Sep-17 08:12 33.432141 -112.008398 272 1127ft 19kts
26-Sep-17 08:13 33.432151 -112.015189 270 1122ft 20kts
26-Sep-17 08:14 33.432164 -112.022167 268 1116ft 19kts
26-Sep-17 08:15 33.431066 -112.026547 92 1113ft 15kts
26-Sep-17 08:16 33.430990 -112.000263 91 1309ft 169kts
26-Sep-17 08:17 33.432912 -111.943356 87 3638ft 174kts
26-Sep-17 08:18 33.431790 -111.875827 118 4903ft 237kts
26-Sep-17 08:19 33.374664 -111.852015 209 7315ft 247kts
26-Sep-17 08:20 33.355804 -111.924439 278 9716ft 257kts
26-Sep-17 08:21 33.356729 -112.022935 245 10328ft 344kts
26-Sep-17 08:22 33.300666 -112.117842 231 13060ft 352kts
26-Sep-17 08:23 33.243405 -112.211019 232 16225ft 345kts
26-Sep-17 08:24 33.186191 -112.303870 236 18549ft 357kts
26-Sep-17 08:25 33.126879 -112.400060 237 20789ft 365kts
26-Sep-17 08:26 33.065867 -112.498661 237 22783ft 374kts
26-Sep-17 08:27 33.003359 -112.599409 240 24506ft 386kts
26-Sep-17 08:28 32.950003 -112.715953 268 24686ft 412kts
26-Sep-17 08:29 32.932576 -112.852110 268 26404ft 421kts
26-Sep-17 08:30 32.913914 -112.990632 268 28015ft 429kts
26-Sep-17 08:31 32.894970 -113.128974 269 30099ft 419kts
26-Sep-17 08:32 32.876178 -113.264746 269 31604ft 416kts
26-Sep-17 08:33 32.857447 -113.399970 269 32967ft 412kts
26-Sep-17 08:34 32.838859 -113.533304 269 34095ft 409kts
26-Sep-17 08:35 32.820418 -113.664628 269 34999ft 408kts
26-Sep-17 08:36 32.800876 -113.797756 269 35829ft 406kts
26-Sep-17 08:37 32.781875 -113.930592 269 35889ft 407kts
26-Sep-17 08:38 32.774634 -114.061950 278 35886ft 397kts
26-Sep-17 08:39 32.779751 -114.191889 281 35887ft 395kts
26-Sep-17 08:40 32.785015 -114.322098 281 35885ft 394kts
26-Sep-17 08:41 32.803433 -114.446646 296 35889ft 373kts
26-Sep-17 08:42 32.836771 -114.565238 295 35895ft 382kts
26-Sep-17 08:43 32.869521 -114.684541 295 35860ft 381kts
26-Sep-17 08:44 32.877768 -114.813142 276 35891ft 402kts
26-Sep-17 08:45 32.874480 -114.945229 277 35884ft 399kts
26-Sep-17 08:46 32.871516 -115.076523 277 35887ft 399kts
26-Sep-17 08:47 32.868389 -115.208221 277 35905ft 397kts
26-Sep-17 08:48 32.864998 -115.339531 273 35862ft 403kts
26-Sep-17 08:49 32.846554 -115.471836 269 35858ft 406kts
26-Sep-17 08:50 32.825172 -115.604713 268 34351ft 409kts
26-Sep-17 08:51 32.803629 -115.736602 267 31175ft 412kts
26-Sep-17 08:52 32.783076 -115.871459 272 26902ft 420kts
26-Sep-17 08:53 32.773215 -116.007830 271 23097ft 408kts
26-Sep-17 08:54 32.763510 -116.136984 270 20313ft 377kts
26-Sep-17 08:55 32.754450 -116.256178 270 17806ft 350kts
26-Sep-17 08:56 32.745792 -116.366284 265 15496ft 320kts
26-Sep-17 08:57 32.737966 -116.466843 261 13468ft 293kts
26-Sep-17 08:58 32.728989 -116.565563 261 11264ft 307kts
26-Sep-17 08:59 32.719670 -116.663228 264 9120ft 293kts
26-Sep-17 09:00 32.712125 -116.759107 264 6794ft 290kts
26-Sep-17 09:01 32.697416 -116.850752 249 5392ft 273kts
26-Sep-17 09:02 32.690469 -116.931087 266 5064ft 233kts
26-Sep-17 09:03 32.688075 -117.002993 283 4808ft 195kts
26-Sep-17 09:04 32.703139 -117.065044 286 3769ft 200kts
26-Sep-17 09:05 32.718019 -117.125416 284 1838ft 183kts
26-Sep-17 09:06 32.731462 -117.181018 284 59ft 162kts
26-Sep-17 09:07 32.736319 -117.204094 200 17ft 0kts

Navigation Log

Ident Type
Flight plan parsing failed, navigation log unavailable